Time;durP1;ratioP1;P1;durP2;ratioP2;P2;SDS_P1;SDS_P2;PMS_P1;PMS_P2;Temp;Humidity;BMP_temperature;BMP_pressure;BME280_temperature;BME280_humidity;BME280_pressure;Samples;Min_cycle;Max_cycle;Signal;HPM_P1;HPM_P2
2021/10/03 00:02:20;;;;;;;7.00;6.30;;;;;;;15.30;69.47;99920.38;5022098;28;20056;-43
2021/10/03 00:04:46;;;;;;;7.38;6.68;;;;;;;15.30;69.57;99917.72;5029114;28;20056;-43
2021/10/03 00:07:11;;;;;;;6.20;5.60;;;;;;;15.31;69.58;99908.81;5030011;28;20061;-42
2021/10/03 00:09:37;;;;;;;7.30;6.18;;;;;;;15.30;69.47;99917.72;5028351;28;20026;-43
2021/10/03 00:12:03;;;;;;;7.85;6.50;;;;;;;15.30;69.62;99910.59;5030407;28;20025;-42
2021/10/03 00:14:28;;;;;;;7.15;6.45;;;;;;;15.31;69.45;99914.13;5036358;28;20020;-42
2021/10/03 00:16:53;;;;;;;6.53;5.60;;;;;;;15.30;69.52;99907.09;5029795;28;20124;-41
2021/10/03 00:19:20;;;;;;;6.57;5.97;;;;;;;15.31;69.48;99912.31;5026529;28;20029;-42
2021/10/03 00:21:46;;;;;;;7.38;6.57;;;;;;;15.31;69.64;99907.00;5023719;28;20025;-42
2021/10/03 00:24:12;;;;;;;6.82;6.13;;;;;;;15.31;69.56;99908.81;5027502;28;20476;-42
2021/10/03 00:26:38;;;;;;;6.70;6.10;;;;;;;15.31;69.54;99900.84;5030568;28;20034;-43
2021/10/03 00:29:04;;;;;;;6.80;6.10;;;;;;;15.31;69.46;99900.84;5027791;28;20026;-43
2021/10/03 00:31:29;;;;;;;8.00;7.20;;;;;;;15.30;69.60;99899.97;5031407;28;20048;-42
2021/10/03 00:33:54;;;;;;;6.68;5.97;;;;;;;15.31;69.58;99898.19;5029570;28;20021;-42
2021/10/03 00:36:20;;;;;;;6.97;6.28;;;;;;;15.29;69.55;99898.25;5030080;28;20531;-43
2021/10/03 00:38:46;;;;;;;6.80;6.10;;;;;;;15.32;69.53;99902.56;5029811;28;20072;-42
2021/10/03 00:41:12;;;;;;;7.80;6.13;;;;;;;15.31;69.43;99892.88;5030014;28;20021;-43
2021/10/03 00:43:38;;;;;;;7.03;6.32;;;;;;;15.31;69.43;99888.41;5028970;28;20018;-42
2021/10/03 00:46:03;;;;;;;7.25;6.38;;;;;;;15.31;69.43;99888.41;5030422;28;20028;-42
2021/10/03 00:48:29;;;;;;;7.32;6.63;;;;;;;15.31;69.52;99887.56;5030055;28;20046;-42
2021/10/03 00:50:54;;;;;;;7.13;6.30;;;;;;;15.31;69.42;99891.06;5029881;28;20498;-42
2021/10/03 00:53:20;;;;;;;7.10;6.40;;;;;;;15.32;69.39;99897.25;5029557;28;20033;-43
2021/10/03 00:55:45;;;;;;;7.72;6.93;;;;;;;15.31;69.31;99898.19;5028136;28;20018;-42
2021/10/03 00:58:11;;;;;;;7.03;6.40;;;;;;;15.32;69.33;99899.91;5027307;28;20036;-43
2021/10/03 01:00:38;;;;;;;7.43;6.60;;;;;;;15.32;69.33;99902.56;5029245;28;20060;-42
2021/10/03 01:03:13;;;;;;;7.10;6.45;;;;;;;15.31;69.39;99899.03;5028303;28;20387;-42
2021/10/03 01:05:39;;;;;;;6.80;6.20;;;;;;;15.32;69.22;99899.91;5029531;28;20432;-43
2021/10/03 01:08:05;;;;;;;7.05;6.25;;;;;;;15.31;69.39;99904.34;5028513;28;20033;-44
2021/10/03 01:10:31;;;;;;;7.20;6.50;;;;;;;15.32;69.37;99899.91;5029562;28;20025;-42
2021/10/03 01:13:03;;;;;;;7.05;6.45;;;;;;;15.32;69.23;99899.91;5026793;28;20426;-42
2021/10/03 01:15:31;;;;;;;7.47;6.68;;;;;;;15.32;69.29;99899.91;5028559;28;20028;-43
2021/10/03 01:17:56;;;;;;;7.70;6.10;;;;;;;15.32;69.25;99908.75;5028342;28;20368;-40
2021/10/03 01:20:29;;;;;;;7.55;6.82;;;;;;;15.31;69.22;99903.50;5027890;28;20036;-40
2021/10/03 01:22:54;;;;;;;7.05;6.28;;;;;;;15.32;69.26;99905.22;5028843;28;20022;-40
2021/10/03 01:25:20;;;;;;;7.15;6.22;;;;;;;15.31;69.25;99892.88;5028727;28;20088;-40
2021/10/03 01:27:46;;;;;;;7.20;6.55;;;;;;;15.31;69.14;99883.09;5029455;28;20029;-41
2021/10/03 01:30:15;;;;;;;7.93;7.18;;;;;;;15.32;69.19;99878.66;5029644;28;20095;-40
2021/10/03 01:32:40;;;;;;;7.20;6.50;;;;;;;15.32;69.09;99878.66;5028142;28;20037;-41
2021/10/03 01:35:06;;;;;;;7.03;6.10;;;;;;;15.32;69.06;99873.34;5033071;28;20025;-41
2021/10/03 01:37:33;;;;;;;9.50;6.78;;;;;;;15.32;69.06;99876.88;5033755;28;20433;-40
2021/10/03 01:39:59;;;;;;;8.65;6.78;;;;;;;15.32;69.17;99870.69;5034224;28;20025;-41
2021/10/03 01:42:24;;;;;;;6.80;6.20;;;;;;;15.33;69.00;99877.72;5033439;28;20025;-40
2021/10/03 01:44:49;;;;;;;6.40;5.80;;;;;;;15.33;69.16;99880.38;5033019;28;20083;-39
2021/10/03 01:47:18;;;;;;;7.35;6.32;;;;;;;15.33;69.11;99869.75;5032918;28;20033;-40
2021/10/03 01:49:43;;;;;;;8.02;6.65;;;;;;;15.32;69.11;99879.53;5032470;28;20109;-39
2021/10/03 01:52:08;;;;;;;7.40;6.65;;;;;;;15.33;69.15;99880.38;5031778;28;20096;-40
2021/10/03 01:54:45;;;;;;;6.07;5.50;;;;;;;15.33;69.02;99877.72;5034660;28;20026;-41
2021/10/03 01:57:11;;;;;;;6.93;6.22;;;;;;;15.33;68.83;99880.38;5033587;28;20574;-40
2021/10/03 01:59:38;;;;;;;7.43;6.35;;;;;;;15.32;69.09;99873.34;5031360;28;20400;-40
2021/10/03 02:02:05;;;;;;;6.82;6.13;;;;;;;15.33;69.09;99875.06;5032638;28;20056;-40
2021/10/03 02:04:30;;;;;;;6.78;6.07;;;;;;;15.33;68.95;99872.41;5032126;28;20033;-40
2021/10/03 02:06:57;;;;;;;7.20;6.35;;;;;;;15.33;69.05;99864.44;5030094;28;20021;-40
2021/10/03 02:09:24;;;;;;;7.88;6.60;;;;;;;15.32;69.01;99854.75;5031318;28;20022;-40
2021/10/03 02:11:52;;;;;;;6.50;5.90;;;;;;;15.32;69.08;99860.06;5033194;28;20053;-40
2021/10/03 02:14:19;;;;;;;6.10;5.50;;;;;;;15.33;68.99;99860.00;5031066;28;20033;-40
2021/10/03 02:16:46;;;;;;;7.63;6.85;;;;;;;15.32;69.04;99860.94;5030566;28;20033;-40
2021/10/03 02:19:11;;;;;;;7.05;6.35;;;;;;;15.33;69.09;99860.00;5027810;28;20720;-41
2021/10/03 02:21:37;;;;;;;7.07;6.38;;;;;;;15.33;68.99;99865.31;5029913;28;20025;-39
2021/10/03 02:24:03;;;;;;;7.32;6.53;;;;;;;15.33;69.01;99869.75;5032683;28;20017;-41
2021/10/03 02:26:29;;;;;;;7.30;6.60;;;;;;;15.32;69.00;99863.59;5031264;28;20040;-39
2021/10/03 02:28:54;;;;;;;6.80;6.07;;;;;;;15.33;68.85;99867.09;5031905;28;20033;-40
2021/10/03 02:31:20;;;;;;;6.80;6.10;;;;;;;15.33;69.09;99869.75;5032270;28;20035;-41
2021/10/03 02:33:47;;;;;;;7.40;5.90;;;;;;;15.32;69.00;99866.25;5031400;28;20025;-39
2021/10/03 02:36:15;;;;;;;6.53;5.93;;;;;;;15.34;68.95;99876.81;5030077;28;20025;-40
2021/10/03 02:38:40;;;;;;;7.13;6.43;;;;;;;15.34;69.06;99876.81;5031463;28;20021;-41
2021/10/03 02:41:07;;;;;;;7.03;5.97;;;;;;;15.34;68.98;99874.16;5031973;28;20044;-40
2021/10/03 02:43:34;;;;;;;6.45;5.85;;;;;;;15.34;68.95;99876.81;5031116;28;20029;-40
2021/10/03 02:46:00;;;;;;;6.57;5.97;;;;;;;15.34;69.01;99882.13;5032791;28;20395;-41
2021/10/03 02:48:28;;;;;;;7.00;6.30;;;;;;;15.33;68.95;99864.44;5031644;28;20032;-40
2021/10/03 02:50:54;;;;;;;7.57;6.00;;;;;;;15.34;68.92;99858.22;5030734;28;20021;-39
2021/10/03 02:53:22;;;;;;;7.00;6.30;;;;;;;15.34;68.95;99860.88;5031103;28;20415;-40
2021/10/03 02:55:48;;;;;;;6.93;6.28;;;;;;;15.33;68.97;99860.00;5027165;28;20021;-40
2021/10/03 02:58:13;;;;;;;6.40;5.80;;;;;;;15.33;68.96;99852.03;5031765;28;20017;-40
2021/10/03 03:00:50;;;;;;;6.85;6.15;;;;;;;15.33;68.86;99849.38;5032080;28;20396;-39
2021/10/03 03:03:15;;;;;;;6.38;5.78;;;;;;;15.32;68.83;99852.09;5029542;28;20030;-41
2021/10/03 03:05:40;;;;;;;7.25;6.55;;;;;;;15.33;68.85;99843.19;5031561;28;20034;-39
2021/10/03 03:08:06;;;;;;;6.60;6.00;;;;;;;15.34;68.96;99844.94;5032311;28;20025;-40
2021/10/03 03:10:32;;;;;;;7.00;6.30;;;;;;;15.34;68.99;99839.63;5029608;28;20029;-41
2021/10/03 03:12:58;;;;;;;7.75;6.38;;;;;;;15.33;68.89;99827.25;5029075;28;20033;-41
2021/10/03 03:15:23;;;;;;;6.47;5.88;;;;;;;15.34;68.84;99823.69;5029826;28;20078;-39
2021/10/03 03:17:49;;;;;;;7.07;6.38;;;;;;;15.33;68.95;99833.44;5030038;28;20028;-40
2021/10/03 03:20:14;;;;;;;7.07;6.38;;;;;;;15.34;68.90;99829.00;5029912;28;20026;-41
2021/10/03 03:22:39;;;;;;;8.52;6.65;;;;;;;15.34;68.87;99831.66;5031808;28;20040;-40
2021/10/03 03:25:08;;;;;;;7.82;6.32;;;;;;;15.34;68.74;99829.00;5028276;28;20379;-40
2021/10/03 03:27:33;;;;;;;7.22;6.53;;;;;;;15.34;68.78;99826.34;5031561;28;20029;-40
2021/10/03 03:29:59;;;;;;;7.68;6.40;;;;;;;15.33;68.79;99832.56;5029714;28;20029;-39
2021/10/03 03:32:24;;;;;;;7.13;6.43;;;;;;;15.34;68.80;99831.66;5028113;28;20037;-40
2021/10/03 03:34:49;;;;;;;7.38;6.68;;;;;;;15.34;69.05;99824.53;5030104;28;20075;-40
2021/10/03 03:37:15;;;;;;;8.68;7.03;;;;;;;15.33;68.71;99817.50;5033248;28;20498;-40
2021/10/03 03:40:33;;;;;;;7.88;6.93;;;;;;;15.35;68.86;99825.41;5030091;28;20029;-41
2021/10/03 03:42:58;;;;;;;8.13;6.78;;;;;;;15.34;68.74;99816.56;5029363;28;20095;-39
2021/10/03 03:45:23;;;;;;;7.13;6.22;;;;;;;15.34;68.86;99813.06;5030917;28;20484;-40
2021/10/03 03:48:20;;;;;;;8.60;7.57;;;;;;;15.35;68.74;99820.09;5031087;28;20061;-40
2021/10/03 03:50:45;;;;;;;8.05;6.50;;;;;;;15.34;68.88;99823.69;5026231;28;20040;-39
2021/10/03 03:53:10;;;;;;;7.35;6.55;;;;;;;15.33;68.55;99829.91;5027971;28;20022;-39
2021/10/03 03:55:35;;;;;;;7.82;7.13;;;;;;;15.34;68.78;99829.84;5030739;28;20027;-40
2021/10/03 03:58:01;;;;;;;7.95;7.25;;;;;;;15.34;68.77;99829.84;5029893;28;20633;-39
2021/10/03 04:00:26;;;;;;;7.70;7.00;;;;;;;15.35;68.76;99825.41;5031110;28;20017;-41
2021/10/03 04:02:51;;;;;;;7.78;6.90;;;;;;;15.34;68.83;99826.34;5030708;28;20052;-41
2021/10/03 04:05:17;;;;;;;8.02;6.57;;;;;;;15.34;68.83;99818.38;5030274;28;20410;-40
2021/10/03 04:08:13;;;;;;;8.15;7.07;;;;;;;15.35;68.70;99817.44;5029825;28;20041;-41
2021/10/03 04:10:38;;;;;;;7.18;6.53;;;;;;;15.34;68.83;99818.38;5029488;28;20025;-40
2021/10/03 04:13:03;;;;;;;8.00;7.25;;;;;;;15.35;68.84;99820.09;5030910;28;20036;-41
2021/10/03 04:15:29;;;;;;;8.18;7.35;;;;;;;15.34;68.75;99815.72;5028588;28;20034;-40
2021/10/03 04:17:55;;;;;;;7.72;6.43;;;;;;;15.36;68.79;99821.81;5030074;28;20556;-41
2021/10/03 04:20:20;;;;;;;8.98;7.82;;;;;;;15.33;68.49;99819.28;5030223;28;20116;-40
2021/10/03 04:22:46;;;;;;;8.60;7.70;;;;;;;15.34;68.64;99811.25;5030471;28;20104;-40
2021/10/03 04:25:11;;;;;;;7.90;7.10;;;;;;;15.34;68.76;99807.75;5030358;28;20032;-41
2021/10/03 04:27:36;;;;;;;7.22;6.53;;;;;;;15.34;68.70;99813.91;5029837;28;20645;-40
2021/10/03 04:30:05;;;;;;;7.90;7.03;;;;;;;15.34;68.74;99807.75;5027299;28;20128;-40
2021/10/03 04:32:30;;;;;;;8.38;7.03;;;;;;;15.35;68.87;99809.47;5031328;28;20049;-42
2021/10/03 04:34:55;;;;;;;7.68;6.40;;;;;;;15.35;68.65;99806.81;5029820;28;20041;-42
2021/10/03 04:37:23;;;;;;;8.32;7.13;;;;;;;15.35;68.65;99809.47;5025092;28;20025;-44
2021/10/03 04:39:48;;;;;;;8.05;7.13;;;;;;;15.35;68.72;99804.16;5030309;28;20022;-43
2021/10/03 04:42:13;;;;;;;7.88;6.95;;;;;;;15.35;68.66;99812.13;5029943;28;20033;-42
2021/10/03 04:44:39;;;;;;;8.70;7.80;;;;;;;15.35;68.96;99814.78;5029676;28;20029;-44
2021/10/03 04:47:04;;;;;;;8.27;7.43;;;;;;;15.35;68.86;99813.00;5029846;28;20041;-44
2021/10/03 04:49:29;;;;;;;7.82;7.03;;;;;;;15.35;68.46;99822.75;5028193;28;20041;-42
2021/10/03 04:51:55;;;;;;;7.63;6.88;;;;;;;15.35;68.67;99814.78;5027691;28;20024;-42
2021/10/03 04:54:20;;;;;;;8.40;7.60;;;;;;;15.34;68.70;99813.06;5029257;28;20029;-42
2021/10/03 04:56:45;;;;;;;8.77;7.72;;;;;;;15.35;68.75;99817.44;5023860;28;20531;-43
2021/10/03 04:59:11;;;;;;;8.18;7.38;;;;;;;15.34;68.76;99813.91;5029653;28;20033;-42
2021/10/03 05:01:36;;;;;;;7.97;7.18;;;;;;;15.34;68.75;99821.03;5028842;28;20392;-43
2021/10/03 05:04:01;;;;;;;7.78;6.70;;;;;;;15.35;68.77;99822.75;5030135;28;20029;-42
2021/10/03 05:06:27;;;;;;;7.80;6.97;;;;;;;15.34;68.83;99810.41;5030022;28;20033;-42
2021/10/03 05:08:53;;;;;;;7.80;7.03;;;;;;;15.34;68.95;99819.22;5031458;28;20155;-42
2021/10/03 05:11:18;;;;;;;8.10;7.25;;;;;;;15.35;69.04;99814.78;5034154;28;20391;-44
2021/10/03 05:13:44;;;;;;;8.10;7.30;;;;;;;15.35;68.74;99817.44;5032228;28;20021;-42
2021/10/03 05:16:09;;;;;;;9.18;8.13;;;;;;;15.35;68.84;99820.97;5028519;28;20021;-43
2021/10/03 05:18:37;;;;;;;8.43;7.47;;;;;;;15.35;68.72;99818.31;5030888;28;20021;-43
2021/10/03 05:21:04;;;;;;;8.25;7.47;;;;;;;15.34;68.79;99819.22;5030834;28;20032;-42
2021/10/03 05:23:29;;;;;;;7.97;7.20;;;;;;;15.35;69.13;99820.09;5029232;28;20391;-43
2021/10/03 05:25:54;;;;;;;8.13;7.32;;;;;;;15.35;68.81;99814.78;5033791;28;20467;-42
2021/10/03 05:28:20;;;;;;;8.00;7.20;;;;;;;15.35;68.84;99817.44;5032981;28;20037;-42
2021/10/03 05:30:45;;;;;;;9.32;8.15;;;;;;;15.34;68.76;99810.41;5031126;28;20025;-43
2021/10/03 05:33:10;;;;;;;7.93;7.10;;;;;;;15.35;68.87;99817.44;5029375;28;20488;-43
2021/10/03 05:35:36;;;;;;;8.32;7.53;;;;;;;15.35;68.96;99823.63;5030680;28;20029;-42
2021/10/03 05:38:02;;;;;;;8.38;7.47;;;;;;;15.35;68.73;99817.44;5033757;28;20032;-42
2021/10/03 05:40:28;;;;;;;8.02;7.22;;;;;;;15.34;68.75;99819.22;5029609;28;20403;-43
2021/10/03 05:42:53;;;;;;;9.05;8.05;;;;;;;15.35;68.76;99820.97;5032212;28;20045;-42
2021/10/03 05:45:18;;;;;;;8.73;7.45;;;;;;;15.35;68.86;99810.34;5031255;28;20029;-43
2021/10/03 05:47:44;;;;;;;9.85;8.85;;;;;;;15.35;68.75;99820.09;5031115;28;20025;-43
2021/10/03 05:50:10;;;;;;;10.38;7.82;;;;;;;15.35;68.83;99825.41;5032321;28;20541;-42
2021/10/03 05:52:35;;;;;;;8.27;7.47;;;;;;;15.34;68.89;99824.53;5032608;28;20399;-42
2021/10/03 05:55:00;;;;;;;8.35;7.57;;;;;;;15.35;68.72;99826.28;5028261;28;20017;-43
2021/10/03 05:57:26;;;;;;;9.15;8.25;;;;;;;15.35;68.87;99825.41;5030750;28;20029;-42
2021/10/03 05:59:51;;;;;;;9.05;8.18;;;;;;;15.35;68.57;99823.63;5031458;28;20109;-44
2021/10/03 06:02:16;;;;;;;9.27;8.38;;;;;;;15.35;68.85;99820.97;5031233;28;20462;-43
2021/10/03 06:04:42;;;;;;;11.07;9.35;;;;;;;15.34;68.69;99813.06;5029745;28;20120;-42
2021/10/03 06:07:07;;;;;;;10.02;7.75;;;;;;;15.34;68.68;99813.06;5029244;28;20029;-43
2021/10/03 06:09:32;;;;;;;13.52;8.57;;;;;;;15.35;68.80;99817.44;5028736;28;20029;-43
2021/10/03 06:11:58;;;;;;;9.82;8.75;;;;;;;15.36;68.83;99821.81;5030036;28;20540;-43
2021/10/03 06:14:24;;;;;;;10.60;9.57;;;;;;;15.35;68.77;99820.97;5030735;28;20105;-43
2021/10/03 06:16:50;;;;;;;9.88;7.80;;;;;;;15.35;68.75;99828.06;5031110;28;20026;-42
2021/10/03 06:19:16;;;;;;;9.18;8.25;;;;;;;15.36;68.54;99816.50;5029146;28;20079;-42
2021/10/03 06:21:42;;;;;;;11.23;9.77;;;;;;;15.36;68.73;99827.13;5032030;28;20040;-43
2021/10/03 06:24:08;;;;;;;9.77;8.77;;;;;;;15.36;68.77;99827.13;5032273;28;20021;-43
2021/10/03 06:26:34;;;;;;;9.50;8.38;;;;;;;15.36;68.74;99833.31;5031725;28;20048;-44
2021/10/03 06:28:59;;;;;;;10.13;9.10;;;;;;;15.35;68.72;99817.44;5030414;28;20211;-43
2021/10/03 06:31:25;;;;;;;9.77;8.73;;;;;;;15.35;68.80;99820.97;5026663;28;20036;-44
2021/10/03 06:33:50;;;;;;;9.70;8.73;;;;;;;15.36;68.97;99816.50;5024914;28;20025;-42
2021/10/03 06:36:15;;;;;;;10.07;8.90;;;;;;;15.36;68.75;99811.19;5026995;28;21055;-42
2021/10/03 06:38:44;;;;;;;9.45;8.48;;;;;;;15.36;68.86;99821.81;5026076;28;20059;-44
2021/10/03 06:41:09;;;;;;;11.82;9.68;;;;;;;15.35;68.77;99813.00;5031332;28;20021;-44
2021/10/03 06:43:38;;;;;;;10.50;9.38;;;;;;;15.36;68.74;99811.19;5031079;28;20494;-44
2021/10/03 06:46:08;;;;;;;10.70;9.60;;;;;;;15.37;68.83;99823.53;5031158;28;20030;-43
2021/10/03 06:48:33;;;;;;;10.38;9.38;;;;;;;15.35;68.72;99814.78;5024944;28;20033;-45
2021/10/03 06:50:59;;;;;;;10.57;9.48;;;;;;;15.36;68.75;99806.75;5024785;28;20040;-43
2021/10/03 06:53:26;;;;;;;12.20;10.13;;;;;;;15.35;68.82;99806.81;5023669;28;20099;-42
2021/10/03 06:55:51;;;;;;;10.27;9.23;;;;;;;15.36;68.53;99811.19;5029452;28;20534;-42
2021/10/03 06:58:16;;;;;;;13.18;10.10;;;;;;;15.37;68.85;99807.59;5028424;28;20112;-41
2021/10/03 07:00:41;;;;;;;11.10;9.75;;;;;;;15.35;68.63;99801.50;5032093;28;20040;-42
2021/10/03 07:03:07;;;;;;;10.68;8.85;;;;;;;15.36;68.88;99805.88;5029241;28;20037;-41
2021/10/03 07:05:32;;;;;;;9.90;8.75;;;;;;;15.36;68.73;99808.53;5025957;28;20656;-41
2021/10/03 07:07:58;;;;;;;11.15;9.30;;;;;;;15.36;68.78;99809.41;5025554;28;20037;-41
2021/10/03 07:10:23;;;;;;;10.57;9.48;;;;;;;15.37;68.80;99812.91;5023926;28;20491;-42
2021/10/03 07:12:48;;;;;;;10.45;8.95;;;;;;;15.36;68.84;99816.50;5026199;28;20075;-41
2021/10/03 07:15:14;;;;;;;11.90;9.38;;;;;;;15.35;68.75;99802.38;5027077;28;20025;-41
2021/10/03 07:17:39;;;;;;;10.23;8.55;;;;;;;15.37;68.84;99826.19;5028499;28;20499;-41
2021/10/03 07:20:05;;;;;;;10.43;9.27;;;;;;;15.37;68.80;99818.22;5027535;28;20041;-42
2021/10/03 07:22:31;;;;;;;10.88;9.63;;;;;;;15.36;68.73;99824.47;5024627;28;20041;-41
2021/10/03 07:24:56;;;;;;;10.35;9.35;;;;;;;15.35;68.84;99818.31;5026819;28;20040;-42
2021/10/03 07:27:22;;;;;;;10.40;9.07;;;;;;;15.36;68.69;99820.03;5026746;28;20384;-41
2021/10/03 07:32:17;;;;;;;11.95;9.00;;;;;;;15.41;68.89;99821.63;5029457;28;20041;-43
2021/10/03 07:34:43;;;;;;;14.13;9.88;;;;;;;15.42;69.03;99826.00;5026056;28;20032;-43
2021/10/03 07:37:08;;;;;;;14.07;9.77;;;;;;;15.41;69.07;99817.19;5022244;28;20037;-43
2021/10/03 07:39:34;;;;;;;14.38;9.45;;;;;;;15.43;68.97;99822.41;5020341;28;20025;-44
2021/10/03 07:42:00;;;;;;;16.80;10.45;;;;;;;15.42;68.90;99810.94;5022294;28;20313;-43
2021/10/03 07:44:26;;;;;;;16.90;9.95;;;;;;;15.42;69.04;99816.25;5021778;28;20582;-44
2021/10/03 07:46:51;;;;;;;11.07;9.38;;;;;;;15.42;69.00;99816.25;5019940;28;20048;-43
2021/10/03 07:49:16;;;;;;;10.85;9.07;;;;;;;15.42;68.59;99821.56;5017559;28;20095;-43
2021/10/03 07:51:42;;;;;;;9.63;8.55;;;;;;;15.41;69.28;99827.81;5023152;28;20112;-44
2021/10/03 07:54:08;;;;;;;17.92;10.35;;;;;;;15.42;68.91;99828.66;5019323;28;20407;-43
2021/10/03 07:56:33;;;;;;;11.57;8.80;;;;;;;15.42;68.91;99831.31;5022246;28;20022;-42
2021/10/03 07:58:58;;;;;;;13.25;8.27;;;;;;;15.41;68.98;99827.81;5021781;28;20502;-43
2021/10/03 08:01:24;;;;;;;13.35;9.57;;;;;;;15.42;68.89;99831.31;5021538;28;20045;-43
2021/10/03 08:03:49;;;;;;;10.52;8.25;;;;;;;15.41;69.14;99830.47;5023227;28;20020;-44
2021/10/03 08:06:15;;;;;;;11.45;8.75;;;;;;;15.41;68.96;99830.47;5018519;28;20033;-43
2021/10/03 08:08:40;;;;;;;12.88;9.43;;;;;;;15.42;68.83;99832.19;5023991;28;20037;-43
2021/10/03 08:11:05;;;;;;;10.65;9.55;;;;;;;15.43;68.86;99838.34;5015860;28;20032;-44
2021/10/03 08:13:31;;;;;;;10.05;8.93;;;;;;;15.42;68.93;99845.47;5019301;28;20037;-43
2021/10/03 08:15:56;;;;;;;13.38;9.00;;;;;;;15.42;68.91;99839.28;5025030;28;20037;-43
2021/10/03 08:18:21;;;;;;;10.80;9.00;;;;;;;15.42;68.92;99837.50;5022549;28;20492;-43
2021/10/03 08:20:47;;;;;;;10.48;9.38;;;;;;;15.42;68.97;99829.53;5021121;28;20060;-43
2021/10/03 08:23:13;;;;;;;11.77;9.07;;;;;;;15.42;68.91;99837.50;5019728;28;20101;-44
2021/10/03 08:25:38;;;;;;;11.35;8.98;;;;;;;15.43;68.94;99836.56;5018537;28;20056;-43
2021/10/03 08:28:04;;;;;;;10.73;9.07;;;;;;;15.43;68.90;99843.66;5018198;28;20018;-44
2021/10/03 08:30:29;;;;;;;9.90;8.90;;;;;;;15.43;68.85;99855.16;5022386;28;20091;-43
2021/10/03 08:32:54;;;;;;;9.10;8.20;;;;;;;15.44;68.95;99840.09;5022384;28;20132;-43
2021/10/03 08:35:19;;;;;;;11.40;8.80;;;;;;;15.43;68.92;99838.34;5023337;28;20053;-44
2021/10/03 08:37:45;;;;;;;10.27;8.75;;;;;;;15.43;68.92;99839.22;5021798;28;20028;-43
2021/10/03 08:40:12;;;;;;;12.25;8.77;;;;;;;15.43;68.96;99844.53;5020762;28;20461;-43
2021/10/03 08:42:38;;;;;;;10.43;8.55;;;;;;;15.43;68.92;99838.34;5021509;28;20497;-43
2021/10/03 08:45:04;;;;;;;9.63;7.90;;;;;;;15.43;68.98;99833.91;5023480;28;20029;-43
2021/10/03 08:47:30;;;;;;;10.52;8.00;;;;;;;15.45;68.90;99853.31;5023510;28;20491;-43
2021/10/03 08:49:57;;;;;;;9.85;8.85;;;;;;;15.45;68.70;99845.34;5023762;28;20029;-43
2021/10/03 08:52:23;;;;;;;9.00;8.10;;;;;;;15.45;68.83;99841.81;5025876;28;20037;-43
2021/10/03 08:54:48;;;;;;;9.73;8.65;;;;;;;15.45;68.95;99848.00;5024645;28;20068;-43
2021/10/03 08:57:14;;;;;;;11.45;9.05;;;;;;;15.46;68.85;99844.41;5025606;28;20021;-44
2021/10/03 09:00:00;;;;;;;10.75;8.23;;;;;;;15.46;69.01;99838.22;5025353;28;20029;-43
2021/10/03 09:02:26;;;;;;;9.55;8.55;;;;;;;15.46;68.94;99836.44;5026932;28;20022;-43
2021/10/03 09:04:57;;;;;;;10.18;8.70;;;;;;;15.46;68.79;99840.88;5027361;28;20025;-44
2021/10/03 09:07:22;;;;;;;9.45;8.48;;;;;;;15.47;69.03;99864.72;5027579;28;20025;-43
2021/10/03 09:10:00;;;;;;;11.63;8.57;;;;;;;15.46;68.89;99878.94;5024354;28;20040;-43
2021/10/03 09:12:36;;;;;;;9.63;8.05;;;;;;;15.45;68.85;99866.59;5022217;28;20050;-43
2021/10/03 09:15:05;;;;;;;10.25;8.05;;;;;;;15.47;68.96;99883.31;5024839;28;20067;-43
2021/10/03 09:17:30;;;;;;;9.15;8.20;;;;;;;15.47;68.98;99883.31;5026081;28;20542;-44
2021/10/03 09:20:12;;;;;;;8.63;7.53;;;;;;;15.47;69.03;99880.66;5023709;28;20025;-43
2021/10/03 09:22:56;;;;;;;9.50;8.35;;;;;;;15.48;69.07;99885.03;5025072;28;20025;-43
2021/10/03 09:25:40;;;;;;;9.13;8.13;;;;;;;15.48;69.09;99887.69;5027151;28;20137;-43
2021/10/03 09:28:30;;;;;;;9.50;8.60;;;;;;;15.48;68.98;99885.03;5023166;28;20547;-43
2021/10/03 09:30:56;;;;;;;9.38;8.13;;;;;;;15.48;69.13;99879.72;5023661;28;20128;-44
2021/10/03 09:33:21;;;;;;;9.30;7.97;;;;;;;15.49;69.04;99886.78;5027439;28;20037;-43
2021/10/03 09:36:07;;;;;;;9.15;8.25;;;;;;;15.49;69.13;99892.13;5051541;23;20316;-44
2021/10/03 09:39:08;;;;;;;9.75;8.32;;;;;;;15.49;69.17;99886.78;4993201;28;20026;-44
2021/10/03 09:41:36;;;;;;;9.23;8.25;;;;;;;15.49;69.18;99876.16;4983243;28;20106;-43
2021/10/03 09:44:11;;;;;;;9.38;8.38;;;;;;;15.49;69.26;99872.63;4994787;28;20563;-43
2021/10/03 09:46:38;;;;;;;8.95;7.72;;;;;;;15.50;69.21;99875.22;4990577;28;20093;-44
2021/10/03 09:49:25;;;;;;;8.45;7.55;;;;;;;15.50;69.13;99869.91;4988064;28;20033;-43
2021/10/03 09:51:50;;;;;;;10.18;7.82;;;;;;;15.50;69.35;99883.22;4992508;28;20104;-43
2021/10/03 09:54:17;;;;;;;9.13;8.13;;;;;;;15.50;69.23;99861.94;4989286;28;20485;-43
2021/10/03 09:56:43;;;;;;;8.48;7.32;;;;;;;15.52;69.34;99876.03;4992535;28;20034;-43
2021/10/03 09:59:09;;;;;;;8.02;7.22;;;;;;;15.53;69.16;99879.53;5038871;22;20038;-42
2021/10/03 10:01:38;;;;;;;8.35;7.40;;;;;;;15.54;69.29;99883.91;5029234;28;20043;-42
2021/10/03 10:04:08;;;;;;;9.23;8.23;;;;;;;15.56;69.41;99866.13;5052105;22;20104;-42
2021/10/03 10:06:34;;;;;;;12.65;8.13;;;;;;;15.62;69.75;99854.38;5010039;28;20042;-40
2021/10/03 10:09:05;;;;;;;8.00;7.13;;;;;;;15.70;69.58;99865.53;4988222;28;20042;-40
2021/10/03 10:11:48;;;;;;;7.97;7.18;;;;;;;15.81;69.56;99853.56;4990547;28;20034;-42
2021/10/03 10:14:14;;;;;;;14.65;7.45;;;;;;;15.86;69.30;99862.19;5020129;23;20125;-40
2021/10/03 10:16:44;;;;;;;7.68;6.95;;;;;;;15.93;68.90;99853.00;5018922;28;20030;-41
2021/10/03 10:19:35;;;;;;;9.85;6.95;;;;;;;16.00;68.90;99848.31;5009073;28;20439;-41
2021/10/03 10:22:15;;;;;;;7.35;6.43;;;;;;;16.06;68.32;99840.06;5008711;28;20436;-42
2021/10/03 10:24:44;;;;;;;6.95;6.25;;;;;;;16.12;67.95;99841.59;5004281;28;20041;-41
2021/10/03 10:27:21;;;;;;;7.57;6.50;;;;;;;16.17;67.65;99834.25;5006700;28;20423;-40
2021/10/03 10:30:05;;;;;;;6.63;5.78;;;;;;;16.21;67.25;99834.97;5005677;28;20037;-42
2021/10/03 10:32:51;;;;;;;7.88;6.47;;;;;;;16.24;67.05;99838.34;5005558;28;20037;-40
2021/10/03 10:35:21;;;;;;;7.95;7.15;;;;;;;16.28;67.13;99834.63;5005297;28;20514;-42
2021/10/03 10:37:49;;;;;;;9.73;6.88;;;;;;;16.34;67.10;99841.44;5006016;28;20045;-40
2021/10/03 10:40:20;;;;;;;9.05;6.93;;;;;;;16.35;67.45;99835.22;5006670;28;20156;-40
2021/10/03 10:42:46;;;;;;;8.70;6.68;;;;;;;16.36;67.63;99836.94;5006426;28;20024;-40
2021/10/03 10:45:41;;;;;;;8.40;7.32;;;;;;;16.36;67.85;99839.59;5005291;28;20039;-40
2021/10/03 10:48:06;;;;;;;8.63;7.00;;;;;;;16.35;67.84;99831.69;4995883;28;20048;-41
2021/10/03 10:50:32;;;;;;;10.53;7.03;;;;;;;16.34;68.00;99830.81;5001868;28;20108;-40
2021/10/03 10:53:17;;;;;;;8.82;6.80;;;;;;;16.33;67.91;99829.09;5008258;28;20030;-40
2021/10/03 10:55:59;;;;;;;7.20;6.47;;;;;;;16.33;67.99;99828.22;5009641;28;20029;-40
2021/10/03 10:58:25;;;;;;;7.80;6.53;;;;;;;16.31;67.97;99820.31;5007866;28;20089;-41
2021/10/03 11:00:56;;;;;;;7.30;6.53;;;;;;;16.31;68.09;99812.34;5005490;28;20033;-40
2021/10/03 11:03:41;;;;;;;7.15;6.45;;;;;;;16.31;68.18;99807.03;5007685;28;21836;-40
2021/10/03 11:06:07;;;;;;;7.53;6.82;;;;;;;16.29;68.16;99822.19;5005382;28;20033;-40
2021/10/03 11:09:05;;;;;;;8.45;7.55;;;;;;;16.31;68.13;99832.75;5007335;28;20450;-39
2021/10/03 11:11:33;;;;;;;6.90;6.22;;;;;;;16.29;68.04;99833.69;5001796;28;20037;-40
2021/10/03 11:14:01;;;;;;;7.55;6.75;;;;;;;16.28;68.25;99826.63;5001088;28;20084;-40
2021/10/03 11:16:34;;;;;;;7.32;6.55;;;;;;;16.29;68.20;99827.50;5002187;28;20037;-41
2021/10/03 11:19:00;;;;;;;7.45;6.65;;;;;;;16.29;68.13;99823.06;5005857;28;20037;-41
2021/10/03 11:21:26;;;;;;;8.00;6.90;;;;;;;16.28;68.23;99813.31;5000346;28;20045;-41
2021/10/03 11:23:54;;;;;;;7.30;6.28;;;;;;;16.28;68.10;99826.63;5004802;28;20041;-41
2021/10/03 11:26:21;;;;;;;7.80;7.07;;;;;;;16.28;68.21;99821.31;5003461;28;20072;-41
2021/10/03 11:28:48;;;;;;;7.45;6.72;;;;;;;16.29;68.23;99823.06;5001722;28;20030;-41
2021/10/03 11:31:13;;;;;;;7.18;6.43;;;;;;;16.29;68.37;99825.72;5003669;28;20028;-41
2021/10/03 11:33:46;;;;;;;8.98;6.95;;;;;;;16.28;68.32;99821.31;5004637;28;20026;-44
2021/10/03 11:36:12;;;;;;;6.97;6.28;;;;;;;16.28;68.39;99823.97;5004047;28;20050;-41
2021/10/03 11:38:47;;;;;;;7.40;6.60;;;;;;;16.29;68.37;99823.06;5001680;28;20068;-42